Time;durP1;ratioP1;P1;durP2;ratioP2;P2;SDS_P1;SDS_P2;PMS_P1;PMS_P2;Temp;Humidity;BMP_temperature;BMP_pressure;BME280_temperature;BME280_humidity;BME280_pressure;Samples;Min_cycle;Max_cycle;Signal;HPM_P1;HPM_P2
2024/02/07 00:02:05;;;;;;;31.85;3.63;;;;;;;;;;4961462;28;20104;-69
2024/02/07 00:04:31;;;;;;;30.95;3.90;;;;;;;;;;4980937;28;20047;-69
2024/02/07 00:06:57;;;;;;;21.60;3.20;;;;;;;;;;4973607;28;20093;-69
2024/02/07 00:09:23;;;;;;;22.90;3.55;;;;;;;;;;4974144;28;20395;-69
2024/02/07 00:11:50;;;;;;;27.08;3.97;;;;;;;;;;4981243;28;20034;-69
2024/02/07 00:14:16;;;;;;;21.38;3.17;;;;;;;;;;4972459;28;20129;-69
2024/02/07 00:16:42;;;;;;;25.70;2.97;;;;;;;;;;4980127;28;20079;-69
2024/02/07 00:19:08;;;;;;;22.33;2.83;;;;;;;;;;4979471;28;21905;-69
2024/02/07 00:21:34;;;;;;;31.10;5.20;;;;;;;;;;4981926;28;20053;-69
2024/02/07 00:24:01;;;;;;;24.00;3.00;;;;;;;;;;4974037;28;20519;-69
2024/02/07 00:26:27;;;;;;;19.55;3.28;;;;;;;;;;4977545;28;20402;-69
2024/02/07 00:28:54;;;;;;;19.73;3.95;;;;;;;;;;4981935;28;20042;-69
2024/02/07 00:31:20;;;;;;;23.45;3.42;;;;;;;;;;4979352;28;20085;-69
2024/02/07 00:33:46;;;;;;;28.17;3.72;;;;;;;;;;4983694;28;20105;-69
2024/02/07 00:36:12;;;;;;;20.77;2.85;;;;;;;;;;4980033;28;20046;-69
2024/02/07 00:38:39;;;;;;;26.90;3.10;;;;;;;;;;4981009;28;20059;-69
2024/02/07 00:41:05;;;;;;;31.13;4.25;;;;;;;;;;4990093;28;20043;-69
2024/02/07 00:43:32;;;;;;;28.55;5.70;;;;;;;;;;4984091;28;20136;-69
2024/02/07 00:45:58;;;;;;;27.45;4.47;;;;;;;;;;4976711;28;20462;-69
2024/02/07 00:48:25;;;;;;;29.45;4.90;;;;;;;;;;4978940;28;21431;-69
2024/02/07 00:50:51;;;;;;;28.13;3.85;;;;;;;;;;4983571;28;20058;-69
2024/02/07 00:53:17;;;;;;;20.45;3.28;;;;;;;;;;4981508;28;20445;-69
2024/02/07 00:55:43;;;;;;;32.10;4.82;;;;;;;;;;4981139;28;20047;-69
2024/02/07 00:58:09;;;;;;;21.45;3.03;;;;;;;;;;4982654;28;20050;-69
2024/02/07 01:00:35;;;;;;;24.00;3.22;;;;;;;;;;4986040;28;20045;-69
2024/02/07 01:03:02;;;;;;;29.92;4.70;;;;;;;;;;4986011;28;20180;-69
2024/02/07 01:05:28;;;;;;;28.38;3.85;;;;;;;;;;4983501;28;20514;-69
2024/02/07 01:07:54;;;;;;;23.88;4.43;;;;;;;;;;4994985;28;20085;-69
2024/02/07 01:10:20;;;;;;;21.48;3.42;;;;;;;;;;4985230;28;20129;-69
2024/02/07 01:12:46;;;;;;;24.85;3.47;;;;;;;;;;4985616;28;20057;-69
2024/02/07 01:15:12;;;;;;;31.25;6.03;;;;;;;;;;4995131;28;20371;-69
2024/02/07 01:17:39;;;;;;;25.73;3.40;;;;;;;;;;4987198;28;20080;-69
2024/02/07 01:20:09;;;;;;;23.98;4.15;;;;;;;;;;4995984;28;20052;-69
2024/02/07 01:22:37;;;;;;;25.75;4.85;;;;;;;;;;4984941;28;20038;-69
2024/02/07 01:25:04;;;;;;;23.73;4.93;;;;;;;;;;4997542;28;20112;-69
2024/02/07 01:27:30;;;;;;;24.17;4.18;;;;;;;;;;4963327;28;20054;-69
2024/02/07 01:29:56;;;;;;;22.80;4.50;;;;;;;;;;4981599;28;20039;-69
2024/02/07 01:32:22;;;;;;;23.27;3.22;;;;;;;;;;4983289;28;20497;-69
2024/02/07 01:34:48;;;;;;;33.17;5.15;;;;;;;;;;4978942;28;20046;-69
2024/02/07 01:37:14;;;;;;;19.55;3.60;;;;;;;;;;4990779;28;20470;-69
2024/02/07 01:39:42;;;;;;;25.58;5.13;;;;;;;;;;4979012;28;20046;-69
2024/02/07 01:42:08;;;;;;;21.02;3.25;;;;;;;;;;4990622;28;20445;-69
2024/02/07 01:44:35;;;;;;;28.58;3.58;;;;;;;;;;4981183;28;20061;-69
2024/02/07 01:47:11;;;;;;;30.25;5.78;;;;;;;;;;4994740;28;20050;-69
2024/02/07 01:49:40;;;;;;;19.40;3.33;;;;;;;;;;4981000;28;20149;-69
2024/02/07 01:52:07;;;;;;;27.85;3.50;;;;;;;;;;4990984;28;20116;-69
2024/02/07 01:54:33;;;;;;;28.08;4.85;;;;;;;;;;4979537;28;20494;-69
2024/02/07 01:57:00;;;;;;;25.08;3.92;;;;;;;;;;4974134;28;20049;-69
2024/02/07 01:59:27;;;;;;;18.40;3.40;;;;;;;;;;4977422;28;20056;-69
2024/02/07 02:01:53;;;;;;;22.77;3.75;;;;;;;;;;4979034;28;20095;-69
2024/02/07 02:04:19;;;;;;;21.75;4.18;;;;;;;;;;4986228;28;20053;-69
2024/02/07 02:06:46;;;;;;;26.85;3.88;;;;;;;;;;4977915;28;20050;-69
2024/02/07 02:09:13;;;;;;;22.13;3.65;;;;;;;;;;4991387;28;20128;-69
2024/02/07 02:11:40;;;;;;;28.13;3.78;;;;;;;;;;4997714;28;20456;-69
2024/02/07 02:14:08;;;;;;;21.35;3.88;;;;;;;;;;4976767;28;20518;-69
2024/02/07 02:16:35;;;;;;;29.10;4.18;;;;;;;;;;4973440;28;20054;-69
2024/02/07 02:19:02;;;;;;;23.73;4.18;;;;;;;;;;4969017;28;20119;-69
2024/02/07 02:21:31;;;;;;;21.38;3.03;;;;;;;;;;4974743;28;20109;-69
2024/02/07 02:24:11;;;;;;;33.75;4.75;;;;;;;;;;4987838;28;20414;-69
2024/02/07 02:26:50;;;;;;;24.15;3.33;;;;;;;;;;4975748;28;20133;-69
2024/02/07 02:29:20;;;;;;;17.73;3.28;;;;;;;;;;4980200;28;20088;-69
2024/02/07 02:31:49;;;;;;;28.70;4.93;;;;;;;;;;4981297;28;20057;-69
2024/02/07 02:34:15;;;;;;;28.38;3.70;;;;;;;;;;4976552;28;20383;-69
2024/02/07 02:36:41;;;;;;;24.92;3.50;;;;;;;;;;4992120;28;20554;-69
2024/02/07 02:39:08;;;;;;;24.90;3.75;;;;;;;;;;4977570;28;20046;-69
2024/02/07 02:41:34;;;;;;;22.48;5.13;;;;;;;;;;4966096;28;20514;-69
2024/02/07 02:44:00;;;;;;;28.08;4.00;;;;;;;;;;4974942;28;20065;-69
2024/02/07 02:46:27;;;;;;;25.45;6.35;;;;;;;;;;4975697;28;20112;-69
2024/02/07 02:48:53;;;;;;;25.75;3.65;;;;;;;;;;4973842;28;20367;-69
2024/02/07 02:51:19;;;;;;;33.35;5.18;;;;;;;;;;4979458;28;20076;-69
2024/02/07 02:53:45;;;;;;;24.38;3.58;;;;;;;;;;4981740;28;20044;-69
2024/02/07 02:56:12;;;;;;;18.88;3.47;;;;;;;;;;4980668;28;20082;-69
2024/02/07 02:58:39;;;;;;;20.38;3.75;;;;;;;;;;4980053;28;20042;-69
2024/02/07 03:01:06;;;;;;;25.42;4.57;;;;;;;;;;4979339;28;20055;-69
2024/02/07 03:03:32;;;;;;;19.58;4.05;;;;;;;;;;4986683;28;20050;-69
2024/02/07 03:05:59;;;;;;;24.65;3.60;;;;;;;;;;4977893;28;20044;-69
2024/02/07 03:08:42;;;;;;;27.27;3.75;;;;;;;;;;4982672;28;20097;-69
2024/02/07 03:11:09;;;;;;;27.45;4.05;;;;;;;;;;4982505;28;20097;-69
2024/02/07 03:13:37;;;;;;;18.20;3.55;;;;;;;;;;4985169;28;20050;-69
2024/02/07 03:16:05;;;;;;;23.33;3.83;;;;;;;;;;4977524;28;20399;-69
2024/02/07 03:18:33;;;;;;;24.35;3.28;;;;;;;;;;4979180;28;20471;-69
2024/02/07 03:21:01;;;;;;;22.13;4.13;;;;;;;;;;4976896;28;20041;-69
2024/02/07 03:23:28;;;;;;;22.60;3.28;;;;;;;;;;4981248;28;20460;-69
2024/02/07 03:25:54;;;;;;;18.80;3.50;;;;;;;;;;4988772;28;20056;-69
2024/02/07 03:28:21;;;;;;;22.75;3.95;;;;;;;;;;4983442;28;20059;-69
2024/02/07 03:30:47;;;;;;;24.10;3.72;;;;;;;;;;4988945;28;20112;-69
2024/02/07 03:33:13;;;;;;;22.52;4.03;;;;;;;;;;4989376;28;20567;-69
2024/02/07 03:35:39;;;;;;;27.58;5.22;;;;;;;;;;4996242;28;20108;-69
2024/02/07 03:38:05;;;;;;;20.35;3.83;;;;;;;;;;4989152;28;20122;-69
2024/02/07 03:40:32;;;;;;;30.63;3.70;;;;;;;;;;4991456;28;20526;-69
2024/02/07 03:42:58;;;;;;;27.38;5.22;;;;;;;;;;4989754;28;20156;-69
2024/02/07 03:45:25;;;;;;;25.50;3.78;;;;;;;;;;4992654;28;20057;-69
2024/02/07 03:47:51;;;;;;;27.50;3.63;;;;;;;;;;4990927;28;20042;-69
2024/02/07 03:50:17;;;;;;;25.88;3.50;;;;;;;;;;4986520;28;20292;-69
2024/02/07 03:52:44;;;;;;;24.77;4.22;;;;;;;;;;4984262;28;20125;-69
2024/02/07 03:55:12;;;;;;;27.30;3.38;;;;;;;;;;4985899;28;20042;-68
2024/02/07 03:57:42;;;;;;;24.95;2.95;;;;;;;;;;5000035;28;20049;-69
2024/02/07 04:00:09;;;;;;;27.40;3.72;;;;;;;;;;4997037;28;20477;-69
2024/02/07 04:02:38;;;;;;;20.50;2.97;;;;;;;;;;4987262;28;20061;-69
2024/02/07 04:05:07;;;;;;;31.20;4.60;;;;;;;;;;4992877;28;20226;-69
2024/02/07 04:07:34;;;;;;;16.20;3.42;;;;;;;;;;4996907;28;20054;-69
2024/02/07 04:10:00;;;;;;;24.35;4.57;;;;;;;;;;4983383;28;20065;-68
2024/02/07 05:17:24;;;;;;;25.80;2.55;;;;;;;;;;4995546;28;20124;-69
2024/02/07 05:19:51;;;;;;;16.52;2.47;;;;;;;;;;4982848;28;20050;-69
2024/02/07 05:22:17;;;;;;;20.73;2.15;;;;;;;;;;4980805;28;20124;-68
2024/02/07 05:24:46;;;;;;;15.07;2.33;;;;;;;;;;4972056;28;20081;-69
2024/02/07 05:27:13;;;;;;;19.70;2.85;;;;;;;;;;4972957;28;20046;-68
2024/02/07 05:29:40;;;;;;;19.83;2.78;;;;;;;;;;4976401;28;20058;-69
2024/02/07 05:32:07;;;;;;;24.88;2.67;;;;;;;;;;4988086;28;20065;-69
2024/02/07 05:34:34;;;;;;;19.23;2.30;;;;;;;;;;4980548;28;20065;-69
2024/02/07 05:37:01;;;;;;;18.92;2.45;;;;;;;;;;4973433;28;20057;-68
2024/02/07 05:39:27;;;;;;;19.95;2.88;;;;;;;;;;4979775;28;20056;-69
2024/02/07 05:41:54;;;;;;;24.48;4.38;;;;;;;;;;4977456;28;20486;-68
2024/02/07 05:44:20;;;;;;;22.85;3.53;;;;;;;;;;4984396;28;20054;-68
2024/02/07 05:46:46;;;;;;;16.83;2.20;;;;;;;;;;4979816;28;20056;-69
2024/02/07 05:49:14;;;;;;;16.58;3.13;;;;;;;;;;4990277;28;20387;-69
2024/02/07 05:51:40;;;;;;;15.95;2.47;;;;;;;;;;4988115;28;20058;-68
2024/02/07 05:54:07;;;;;;;18.02;3.05;;;;;;;;;;4973543;28;20048;-68
2024/02/07 05:56:34;;;;;;;22.00;2.70;;;;;;;;;;4986769;28;20046;-69
2024/02/07 05:59:01;;;;;;;17.35;2.58;;;;;;;;;;4978685;28;20050;-69
2024/02/07 06:01:27;;;;;;;16.05;2.67;;;;;;;;;;4998816;28;20504;-68
2024/02/07 06:03:54;;;;;;;16.30;2.47;;;;;;;;;;4977924;28;20048;-68
2024/02/07 06:06:22;;;;;;;20.75;2.45;;;;;;;;;;4989906;28;20039;-69
2024/02/07 06:08:49;;;;;;;22.08;2.65;;;;;;;;;;4974845;28;20405;-69
2024/02/07 06:11:15;;;;;;;21.02;4.10;;;;;;;;;;4979260;28;20084;-69
2024/02/07 06:13:42;;;;;;;18.52;2.47;;;;;;;;;;4978784;28;20058;-68
2024/02/07 06:16:08;;;;;;;27.63;4.10;;;;;;;;;;4976120;28;20041;-69
2024/02/07 06:18:35;;;;;;;20.58;2.03;;;;;;;;;;4982056;28;20046;-69
2024/02/07 06:21:02;;;;;;;17.45;2.58;;;;;;;;;;4981335;28;20054;-69
2024/02/07 06:23:28;;;;;;;14.70;2.35;;;;;;;;;;4982301;28;20057;-68
2024/02/07 06:25:54;;;;;;;20.33;2.63;;;;;;;;;;4979647;28;20069;-69
2024/02/07 06:28:21;;;;;;;11.15;2.08;;;;;;;;;;4977802;28;20351;-69
2024/02/07 06:30:48;;;;;;;15.90;2.50;;;;;;;;;;4965967;28;20054;-69
2024/02/07 06:33:15;;;;;;;10.65;2.55;;;;;;;;;;4973781;28;20057;-69
2024/02/07 06:35:42;;;;;;;17.50;2.00;;;;;;;;;;4993568;28;20089;-69
2024/02/07 06:38:08;;;;;;;12.85;2.40;;;;;;;;;;4968995;28;20577;-69
2024/02/07 06:40:34;;;;;;;14.30;2.10;;;;;;;;;;4969424;28;20360;-68
2024/02/07 06:43:01;;;;;;;12.32;1.60;;;;;;;;;;4990844;28;20101;-68
2024/02/07 06:45:27;;;;;;;16.70;2.17;;;;;;;;;;4981894;28;20049;-69
2024/02/07 06:47:53;;;;;;;14.18;2.00;;;;;;;;;;4980415;28;20050;-69
2024/02/07 06:50:22;;;;;;;17.50;2.63;;;;;;;;;;4983739;28;20074;-69
2024/02/07 06:52:48;;;;;;;10.57;2.30;;;;;;;;;;4982890;28;20060;-69
2024/02/07 06:55:14;;;;;;;20.42;2.72;;;;;;;;;;4984930;28;20034;-69
2024/02/07 06:57:40;;;;;;;21.17;2.05;;;;;;;;;;4973176;28;20461;-69
2024/02/07 07:00:07;;;;;;;18.08;2.08;;;;;;;;;;4999197;28;20318;-68
2024/02/07 07:02:33;;;;;;;14.80;2.40;;;;;;;;;;5001232;28;20081;-69
2024/02/07 07:04:59;;;;;;;14.38;2.10;;;;;;;;;;4997527;28;20784;-70
2024/02/07 07:07:25;;;;;;;15.15;2.15;;;;;;;;;;4986863;28;20041;-69
2024/02/07 07:09:51;;;;;;;23.48;3.53;;;;;;;;;;5011226;28;20044;-69
2024/02/07 07:12:19;;;;;;;19.90;2.78;;;;;;;;;;4993042;28;20104;-69
2024/02/07 07:14:45;;;;;;;24.70;2.83;;;;;;;;;;4989958;28;20050;-68
2024/02/07 07:17:12;;;;;;;20.35;3.13;;;;;;;;;;5002492;28;20489;-69
2024/02/07 07:19:39;;;;;;;20.05;3.83;;;;;;;;;;4997631;28;20056;-69
2024/02/07 07:22:05;;;;;;;9.75;1.83;;;;;;;;;;4989967;28;20050;-68
2024/02/07 07:24:31;;;;;;;17.58;2.30;;;;;;;;;;4973454;28;20049;-69
2024/02/07 07:26:58;;;;;;;15.80;2.40;;;;;;;;;;4986789;28;20053;-69
2024/02/07 07:29:24;;;;;;;12.52;2.22;;;;;;;;;;4984416;28;20140;-68
2024/02/07 07:31:50;;;;;;;13.00;1.77;;;;;;;;;;4998310;28;20050;-68
2024/02/07 07:34:16;;;;;;;12.23;1.80;;;;;;;;;;4993536;28;20049;-69
2024/02/07 07:36:42;;;;;;;9.60;1.67;;;;;;;;;;4988003;28;20054;-69
2024/02/07 07:39:10;;;;;;;16.80;2.53;;;;;;;;;;5003862;28;20034;-69
2024/02/07 07:41:39;;;;;;;14.15;2.10;;;;;;;;;;4989665;28;20050;-69
2024/02/07 07:44:05;;;;;;;26.42;4.07;;;;;;;;;;4967604;28;20046;-69
2024/02/07 07:46:32;;;;;;;10.18;2.10;;;;;;;;;;4986735;28;20108;-69
2024/02/07 07:48:58;;;;;;;15.88;2.58;;;;;;;;;;5004673;28;20053;-69
2024/02/07 07:51:26;;;;;;;16.27;2.40;;;;;;;;;;4988209;28;20045;-70
2024/02/07 07:53:52;;;;;;;23.42;2.03;;;;;;;;;;4987524;28;20080;-69
2024/02/07 07:56:20;;;;;;;11.48;1.80;;;;;;;;;;4996545;28;20486;-72
2024/02/07 07:58:49;;;;;;;18.55;2.38;;;;;;;;;;4986510;28;20046;-71
2024/02/07 08:01:16;;;;;;;13.15;1.88;;;;;;;;;;4979834;28;20121;-68
2024/02/07 08:03:42;;;;;;;14.68;1.95;;;;;;;;;;4986074;28;20049;-68
2024/02/07 08:06:09;;;;;;;17.20;2.53;;;;;;;;;;4996787;28;20056;-68
2024/02/07 08:08:35;;;;;;;16.45;2.80;;;;;;;;;;4993983;28;20053;-69
2024/02/07 08:11:02;;;;;;;16.00;3.08;;;;;;;;;;4990782;28;20061;-69
2024/02/07 08:13:28;;;;;;;18.92;2.28;;;;;;;;;;4988911;28;20073;-68
2024/02/07 08:15:55;;;;;;;14.13;1.85;;;;;;;;;;4998855;28;20084;-67
2024/02/07 08:18:21;;;;;;;14.75;2.70;;;;;;;;;;4996094;28;20108;-68
2024/02/07 08:20:47;;;;;;;11.43;2.13;;;;;;;;;;4986438;28;20493;-68
2024/02/07 08:23:13;;;;;;;13.70;2.38;;;;;;;;;;4996906;28;20062;-67
2024/02/07 08:25:39;;;;;;;13.57;2.08;;;;;;;;;;4994535;28;20042;-68
2024/02/07 08:28:06;;;;;;;19.52;2.25;;;;;;;;;;4977167;28;20058;-70
2024/02/07 08:30:32;;;;;;;18.65;2.55;;;;;;;;;;4986971;28;20042;-68
2024/02/07 08:32:58;;;;;;;23.10;5.07;;;;;;;;;;4994356;28;20041;-70
2024/02/07 08:35:24;;;;;;;19.92;2.88;;;;;;;;;;4981409;28;20144;-70
2024/02/07 08:37:51;;;;;;;12.98;1.70;;;;;;;;;;4980204;28;20140;-70
2024/02/07 08:40:17;;;;;;;12.43;1.83;;;;;;;;;;4980652;28;20538;-73
2024/02/07 08:42:44;;;;;;;17.50;2.25;;;;;;;;;;4983914;28;20042;-68
2024/02/07 08:45:10;;;;;;;9.45;2.50;;;;;;;;;;4976149;28;20042;-68
2024/02/07 08:47:37;;;;;;;10.65;2.08;;;;;;;;;;4980051;28;20065;-68
2024/02/07 08:50:03;;;;;;;13.52;1.98;;;;;;;;;;4957855;28;20046;-69
2024/02/07 08:52:29;;;;;;;14.68;2.50;;;;;;;;;;4986161;28;20043;-69
2024/02/07 08:54:58;;;;;;;13.45;2.10;;;;;;;;;;4972211;28;20066;-69
2024/02/07 08:57:27;;;;;;;16.08;2.45;;;;;;;;;;4971481;28;20049;-68
2024/02/07 08:59:53;;;;;;;12.45;2.00;;;;;;;;;;4979952;28;20466;-68
2024/02/07 09:02:19;;;;;;;16.27;2.60;;;;;;;;;;4986332;28;20042;-68
2024/02/07 09:04:49;;;;;;;11.48;2.17;;;;;;;;;;4982874;28;20435;-68
2024/02/07 09:07:15;;;;;;;14.68;1.85;;;;;;;;;;4980482;28;20069;-68
2024/02/07 09:09:41;;;;;;;14.27;2.40;;;;;;;;;;4974715;28;20097;-69
2024/02/07 09:12:07;;;;;;;14.35;2.15;;;;;;;;;;4973261;28;20622;-69
2024/02/07 09:14:33;;;;;;;13.65;3.30;;;;;;;;;;4983757;28;20047;-69
2024/02/07 09:16:59;;;;;;;14.43;3.53;;;;;;;;;;4984606;28;20075;-69
2024/02/07 09:19:25;;;;;;;15.38;2.08;;;;;;;;;;4979098;28;20065;-72
2024/02/07 09:21:52;;;;;;;15.90;2.03;;;;;;;;;;4972097;28;20064;-69
2024/02/07 09:24:18;;;;;;;13.85;3.45;;;;;;;;;;4977038;28;20540;-66
2024/02/07 09:26:44;;;;;;;13.80;2.25;;;;;;;;;;4979304;28;20130;-68
2024/02/07 09:29:10;;;;;;;20.20;2.80;;;;;;;;;;4979942;28;20035;-68
2024/02/07 09:31:36;;;;;;;16.50;2.55;;;;;;;;;;4984900;28;20140;-68
2024/02/07 09:34:03;;;;;;;23.80;3.53;;;;;;;;;;4985856;28;20077;-66
2024/02/07 09:36:29;;;;;;;19.30;3.78;;;;;;;;;;4985380;28;20099;-69
2024/02/07 09:38:55;;;;;;;17.13;2.72;;;;;;;;;;5004845;28;20050;-68
2024/02/07 09:41:22;;;;;;;30.00;4.50;;;;;;;;;;4987259;28;20081;-68
2024/02/07 09:43:50;;;;;;;19.98;3.25;;;;;;;;;;4985784;28;20042;-68
2024/02/07 09:46:21;;;;;;;13.77;2.83;;;;;;;;;;4985444;28;20128;-68
2024/02/07 09:48:49;;;;;;;20.38;2.75;;;;;;;;;;4976512;28;20102;-68
2024/02/07 09:51:16;;;;;;;22.08;3.50;;;;;;;;;;4969155;28;20129;-68
2024/02/07 09:53:45;;;;;;;23.33;3.25;;;;;;;;;;4981814;28;20501;-68
2024/02/07 09:56:12;;;;;;;16.33;2.35;;;;;;;;;;4985173;28;20045;-68
2024/02/07 09:58:39;;;;;;;14.23;2.80;;;;;;;;;;4988272;28;20482;-68
2024/02/07 10:01:06;;;;;;;16.90;2.83;;;;;;;;;;4981683;28;20050;-68
2024/02/07 10:03:34;;;;;;;19.77;2.58;;;;;;;;;;4992213;28;20125;-68
2024/02/07 10:06:00;;;;;;;21.67;3.22;;;;;;;;;;4985961;28;20497;-68
2024/02/07 10:08:26;;;;;;;17.90;2.72;;;;;;;;;;4987553;28;20038;-68
2024/02/07 10:10:52;;;;;;;21.80;2.72;;;;;;;;;;4983834;28;20042;-69
2024/02/07 10:13:19;;;;;;;16.88;3.38;;;;;;;;;;5001003;28;20049;-69
2024/02/07 10:15:45;;;;;;;13.25;2.25;;;;;;;;;;4985986;28;20053;-70
2024/02/07 10:18:12;;;;;;;14.40;2.40;;;;;;;;;;5000342;28;20045;-68
2024/02/07 10:20:39;;;;;;;12.57;2.22;;;;;;;;;;4969639;28;20137;-68
2024/02/07 10:23:06;;;;;;;16.85;3.00;;;;;;;;;;4985671;28;20053;-69
2024/02/07 10:25:32;;;;;;;16.83;2.85;;;;;;;;;;4984141;28;20065;-68
2024/02/07 10:28:02;;;;;;;22.02;2.67;;;;;;;;;;4995137;28;20532;-69
2024/02/07 10:30:28;;;;;;;18.45;2.85;;;;;;;;;;4974382;28;20107;-69
2024/02/07 10:32:55;;;;;;;12.68;1.90;;;;;;;;;;4995699;28;20042;-68
2024/02/07 10:35:22;;;;;;;17.40;3.03;;;;;;;;;;4994268;28;20477;-69
2024/02/07 10:37:52;;;;;;;14.30;2.50;;;;;;;;;;4983624;28;20054;-68
2024/02/07 10:40:19;;;;;;;15.77;2.13;;;;;;;;;;4962125;28;20039;-68
2024/02/07 10:42:52;;;;;;;12.77;2.30;;;;;;;;;;4986554;28;20386;-68
2024/02/07 10:45:19;;;;;;;12.27;2.00;;;;;;;;;;4988002;28;20113;-68
2024/02/07 10:47:45;;;;;;;15.93;2.50;;;;;;;;;;4984887;28;20073;-68
2024/02/07 10:50:11;;;;;;;15.55;2.47;;;;;;;;;;4978320;28;20038;-68
2024/02/07 10:52:39;;;;;;;13.55;2.90;;;;;;;;;;4970828;28;20091;-68
2024/02/07 10:55:07;;;;;;;16.15;2.13;;;;;;;;;;4990209;28;20399;-68
2024/02/07 10:57:38;;;;;;;14.50;2.38;;;;;;;;;;4991044;28;20058;-68
2024/02/07 11:00:05;;;;;;;13.95;2.25;;;;;;;;;;4982570;28;20061;-68
2024/02/07 11:02:33;;;;;;;27.23;3.67;;;;;;;;;;4987416;28;20116;-68
2024/02/07 11:05:00;;;;;;;17.23;1.80;;;;;;;;;;4981362;28;20722;-68
2024/02/07 11:07:26;;;;;;;20.40;2.72;;;;;;;;;;4987951;28;20493;-68
2024/02/07 11:09:53;;;;;;;11.18;1.77;;;;;;;;;;5009073;28;20178;-68
2024/02/07 11:12:19;;;;;;;12.23;2.95;;;;;;;;;;4986929;28;20092;-68
2024/02/07 11:14:46;;;;;;;17.05;1.77;;;;;;;;;;4977908;28;20084;-68
2024/02/07 11:17:14;;;;;;;15.20;2.25;;;;;;;;;;4961615;28;20464;-68
2024/02/07 11:19:40;;;;;;;12.38;1.58;;;;;;;;;;4991734;28;20039;-68
2024/02/07 11:22:08;;;;;;;16.00;2.58;;;;;;;;;;4999234;28;20190;-69
2024/02/07 11:24:35;;;;;;;6.72;1.45;;;;;;;;;;4997953;28;20402;-68
2024/02/07 11:27:02;;;;;;;14.80;2.15;;;;;;;;;;4990858;28;20061;-67
2024/02/07 11:29:29;;;;;;;17.52;2.28;;;;;;;;;;4990584;28;20104;-68
2024/02/07 11:31:55;;;;;;;16.52;2.08;;;;;;;;;;4993121;28;20089;-68
2024/02/07 11:34:22;;;;;;;11.88;2.80;;;;;;;;;;4993173;28;20450;-68
2024/02/07 11:36:53;;;;;;;14.02;2.22;;;;;;;;;;4994244;28;20054;-68
2024/02/07 11:39:19;;;;;;;11.02;1.80;;;;;;;;;;4991760;28;20038;-68
2024/02/07 11:41:47;;;;;;;11.13;2.03;;;;;;;;;;4991589;28;20057;-69
2024/02/07 11:44:15;;;;;;;10.98;1.67;;;;;;;;;;4998207;28;20149;-68
2024/02/07 11:46:49;;;;;;;10.63;1.70;;;;;;;;;;4982280;28;20240;-68
2024/02/07 11:49:18;;;;;;;8.60;1.70;;;;;;;;;;4994149;28;20049;-69
2024/02/07 11:51:44;;;;;;;15.63;2.95;;;;;;;;;;4981089;28;20041;-69
2024/02/07 11:54:10;;;;;;;15.88;2.35;;;;;;;;;;4980539;28;20046;-69
2024/02/07 11:56:37;;;;;;;12.88;2.45;;;;;;;;;;4994620;28;20054;-69
2024/02/07 11:59:06;;;;;;;13.68;1.80;;;;;;;;;;4978412;28;20046;-70
2024/02/07 12:01:32;;;;;;;10.27;1.80;;;;;;;;;;5001623;28;20119;-69
2024/02/07 12:04:00;;;;;;;12.88;2.38;;;;;;;;;;4989524;28;20034;-70
2024/02/07 12:06:27;;;;;;;13.30;2.60;;;;;;;;;;4991066;28;20061;-69
2024/02/07 12:08:53;;;;;;;13.93;2.20;;;;;;;;;;4990352;28;20100;-69
2024/02/07 12:11:19;;;;;;;13.10;2.40;;;;;;;;;;4991065;28;20035;-69
2024/02/07 12:13:45;;;;;;;8.50;1.95;;;;;;;;;;4985987;28;20054;-70
2024/02/07 12:16:12;;;;;;;11.68;2.25;;;;;;;;;;5002079;28;20037;-69
2024/02/07 12:18:38;;;;;;;13.90;2.45;;;;;;;;;;4988754;28;20111;-70
2024/02/07 12:21:05;;;;;;;7.60;1.70;;;;;;;;;;4992287;28;20042;-69
2024/02/07 12:23:31;;;;;;;11.80;1.80;;;;;;;;;;4989643;28;20049;-69
2024/02/07 12:25:58;;;;;;;12.40;2.28;;;;;;;;;;4989732;28;20085;-69
2024/02/07 12:28:26;;;;;;;11.25;2.30;;;;;;;;;;4984917;28;20049;-69
2024/02/07 12:30:56;;;;;;;11.48;2.38;;;;;;;;;;4988109;28;20133;-70
2024/02/07 12:33:23;;;;;;;11.40;2.33;;;;;;;;;;5001860;28;20125;-70
2024/02/07 12:35:55;;;;;;;8.65;1.90;;;;;;;;;;4965600;28;20572;-71
2024/02/07 12:38:22;;;;;;;16.30;2.45;;;;;;;;;;4985542;28;20041;-69
2024/02/07 12:40:49;;;;;;;10.18;1.70;;;;;;;;;;4999108;28;20092;-70
2024/02/07 12:43:17;;;;;;;9.68;2.35;;;;;;;;;;4989698;28;20042;-70
2024/02/07 12:45:47;;;;;;;13.63;2.35;;;;;;;;;;4994676;28;20046;-70
2024/02/07 12:48:13;;;;;;;10.02;2.00;;;;;;;;;;4989279;28;20458;-69
2024/02/07 12:50:40;;;;;;;11.90;2.03;;;;;;;;;;4988920;28;20049;-77
2024/02/07 12:53:06;;;;;;;12.57;1.85;;;;;;;;;;4987274;28;20057;-71
2024/02/07 12:55:32;;;;;;;11.63;2.13;;;;;;;;;;5003340;28;20045;-69
2024/02/07 12:58:05;;;;;;;11.60;2.03;;;;;;;;;;4977039;28;20045;-69
2024/02/07 13:00:32;;;;;;;11.02;2.10;;;;;;;;;;4972478;28;20090;-69
2024/02/07 13:02:58;;;;;;;12.90;2.20;;;;;;;;;;4979459;28;20046;-69
2024/02/07 13:05:24;;;;;;;14.02;2.17;;;;;;;;;;4991144;28;21775;-69
2024/02/07 13:07:51;;;;;;;9.15;1.95;;;;;;;;;;4978729;28;20041;-69
2024/02/07 13:10:17;;;;;;;19.98;2.35;;;;;;;;;;4991223;28;20050;-69
2024/02/07 13:12:43;;;;;;;12.02;2.47;;;;;;;;;;4977218;28;20553;-69
2024/02/07 13:15:15;;;;;;;7.47;2.00;;;;;;;;;;4965035;28;20042;-73
2024/02/07 13:17:41;;;;;;;10.60;1.80;;;;;;;;;;4993782;28;20046;-70
2024/02/07 13:20:08;;;;;;;12.00;2.42;;;;;;;;;;4993966;28;20379;-70
2024/02/07 13:22:34;;;;;;;10.50;1.90;;;;;;;;;;4980870;28;20100;-70
2024/02/07 13:25:01;;;;;;;12.02;2.65;;;;;;;;;;4985611;28;20052;-70
2024/02/07 13:27:27;;;;;;;10.95;1.88;;;;;;;;;;4990529;28;20050;-74
2024/02/07 13:29:53;;;;;;;13.68;2.28;;;;;;;;;;4986275;28;20038;-69
2024/02/07 13:32:22;;;;;;;12.68;3.03;;;;;;;;;;4986457;28;20049;-69
2024/02/07 13:34:49;;;;;;;10.82;2.10;;;;;;;;;;4992282;28;20065;-69
2024/02/07 13:37:15;;;;;;;9.30;1.92;;;;;;;;;;4983729;28;20126;-69
2024/02/07 13:39:41;;;;;;;9.18;1.63;;;;;;;;;;4996035;28;20168;-70
2024/02/07 13:42:08;;;;;;;13.50;1.98;;;;;;;;;;4989182;28;20052;-71
2024/02/07 13:44:34;;;;;;;9.65;1.85;;;;;;;;;;5001842;28;20512;-71
2024/02/07 13:47:01;;;;;;;12.05;2.30;;;;;;;;;;4988140;28;20175;-71
2024/02/07 13:49:28;;;;;;;13.90;1.75;;;;;;;;;;4984984;28;20041;-71
2024/02/07 13:51:54;;;;;;;11.43;1.88;;;;;;;;;;4989489;28;20095;-71
2024/02/07 13:54:20;;;;;;;12.55;1.90;;;;;;;;;;4967101;28;20042;-71
2024/02/07 13:56:47;;;;;;;10.32;1.70;;;;;;;;;;4997557;28;20521;-71
2024/02/07 13:59:13;;;;;;;11.95;2.10;;;;;;;;;;4984965;28;20048;-70
2024/02/07 14:01:40;;;;;;;8.35;2.22;;;;;;;;;;4980906;28;20042;-70
2024/02/07 14:04:06;;;;;;;9.45;2.28;;;;;;;;;;4984163;28;20045;-70
2024/02/07 14:06:32;;;;;;;10.45;2.03;;;;;;;;;;4986336;28;20455;-69
2024/02/07 14:08:59;;;;;;;13.05;2.15;;;;;;;;;;4986103;28;20188;-69
2024/02/07 14:11:25;;;;;;;15.30;2.70;;;;;;;;;;4997233;28;20390;-69
2024/02/07 14:13:52;;;;;;;16.02;2.58;;;;;;;;;;4963163;28;20398;-70
2024/02/07 14:16:18;;;;;;;11.20;2.15;;;;;;;;;;4984198;28;20050;-68
2024/02/07 14:18:44;;;;;;;19.75;4.05;;;;;;;;;;4983904;28;21978;-69
2024/02/07 14:21:10;;;;;;;11.52;2.20;;;;;;;;;;5001548;28;20072;-69
2024/02/07 14:23:37;;;;;;;14.23;2.25;;;;;;;;;;4984995;28;20497;-69
2024/02/07 14:26:04;;;;;;;13.57;2.03;;;;;;;;;;4993753;28;20104;-69
2024/02/07 14:28:30;;;;;;;11.15;1.80;;;;;;;;;;4993451;28;20556;-69
2024/02/07 14:30:56;;;;;;;12.40;2.33;;;;;;;;;;4999198;28;20049;-69
2024/02/07 14:33:22;;;;;;;12.27;2.20;;;;;;;;;;4981355;28;20072;-69
2024/02/07 14:35:49;;;;;;;15.20;2.15;;;;;;;;;;4987852;28;20061;-69
2024/02/07 14:38:18;;;;;;;9.52;2.85;;;;;;;;;;4987935;28;20053;-69
2024/02/07 14:40:44;;;;;;;12.55;2.35;;;;;;;;;;4984207;28;20085;-69
2024/02/07 14:43:10;;;;;;;15.52;2.90;;;;;;;;;;4983918;28;20402;-69
2024/02/07 14:45:36;;;;;;;11.07;2.10;;;;;;;;;;4991388;28;20131;-69
2024/02/07 14:48:04;;;;;;;10.30;2.22;;;;;;;;;;4995634;28;20057;-69
2024/02/07 14:50:31;;;;;;;15.57;2.33;;;;;;;;;;4982135;28;20069;-69
2024/02/07 14:52:58;;;;;;;37.08;4.97;;;;;;;;;;4984313;28;21690;-69
2024/02/07 14:55:24;;;;;;;13.40;2.50;;;;;;;;;;4983757;28;20177;-69
2024/02/07 14:57:50;;;;;;;19.52;3.35;;;;;;;;;;4988154;28;21588;-68
2024/02/07 15:00:16;;;;;;;15.10;2.30;;;;;;;;;;5007339;28;20173;-68
2024/02/07 15:02:43;;;;;;;14.77;2.40;;;;;;;;;;4989398;28;20105;-68
2024/02/07 15:05:11;;;;;;;11.00;2.08;;;;;;;;;;4988970;28;20376;-68
2024/02/07 15:07:38;;;;;;;11.10;2.13;;;;;;;;;;4990338;28;20068;-68
2024/02/07 15:10:04;;;;;;;11.48;1.85;;;;;;;;;;4989706;28;20075;-68
2024/02/07 15:12:30;;;;;;;11.93;2.25;;;;;;;;;;4984812;28;20052;-69
2024/02/07 15:14:56;;;;;;;12.82;1.58;;;;;;;;;;4971965;28;20760;-68
2024/02/07 15:17:23;;;;;;;17.27;2.42;;;;;;;;;;4983242;28;20129;-68
2024/02/07 15:19:49;;;;;;;18.15;2.38;;;;;;;;;;4987076;28;20160;-68
2024/02/07 15:22:15;;;;;;;15.98;3.13;;;;;;;;;;4971666;28;20041;-68
2024/02/07 15:24:41;;;;;;;19.42;2.40;;;;;;;;;;4987338;28;20468;-68
2024/02/07 15:27:07;;;;;;;13.07;2.28;;;;;;;;;;4986196;28;20057;-68
2024/02/07 15:29:34;;;;;;;17.40;4.18;;;;;;;;;;5004047;28;20454;-68
2024/02/07 15:32:00;;;;;;;11.13;2.15;;;;;;;;;;4985835;28;20140;-68
2024/02/07 15:34:26;;;;;;;13.50;2.30;;;;;;;;;;5001595;28;20529;-68